sensor_id;sensor_type;location;lat;lon;timestamp;P1;durP1;ratioP1;P2;durP2;ratioP2
37309;SDS011;23195;47.744;7.358;2022-08-01T00:00:01;2.17;;;1.90;;
37309;SDS011;23195;47.744;7.358;2022-08-01T00:02:33;2.27;;;1.93;;
37309;SDS011;23195;47.744;7.358;2022-08-01T00:04:59;2.40;;;2.20;;
37309;SDS011;23195;47.744;7.358;2022-08-01T00:07:30;2.23;;;2.03;;
37309;SDS011;23195;47.744;7.358;2022-08-01T00:09:57;4.97;;;2.10;;
37309;SDS011;23195;47.744;7.358;2022-08-01T00:12:22;3.60;;;2.70;;
37309;SDS011;23195;47.744;7.358;2022-08-01T00:14:48;3.07;;;2.03;;
37309;SDS011;23195;47.744;7.358;2022-08-01T00:17:14;3.37;;;2.40;;
37309;SDS011;23195;47.744;7.358;2022-08-01T00:19:41;1.97;;;1.73;;
37309;SDS011;23195;47.744;7.358;2022-08-01T00:22:07;3.33;;;2.00;;
37309;SDS011;23195;47.744;7.358;2022-08-01T00:24:33;1.90;;;1.80;;
37309;SDS011;23195;47.744;7.358;2022-08-01T00:27:05;3.70;;;2.20;;
37309;SDS011;23195;47.744;7.358;2022-08-01T00:29:31;2.37;;;2.17;;
37309;SDS011;23195;47.744;7.358;2022-08-01T00:31:57;3.27;;;1.90;;
37309;SDS011;23195;47.744;7.358;2022-08-01T00:34:23;3.07;;;2.20;;
37309;SDS011;23195;47.744;7.358;2022-08-01T00:36:48;3.03;;;2.10;;
37309;SDS011;23195;47.744;7.358;2022-08-01T00:39:14;2.10;;;1.90;;
37309;SDS011;23195;47.744;7.358;2022-08-01T00:41:43;3.00;;;2.20;;
37309;SDS011;23195;47.744;7.358;2022-08-01T00:44:09;2.30;;;2.10;;
37309;SDS011;23195;47.744;7.358;2022-08-01T00:46:35;2.70;;;2.50;;
37309;SDS011;23195;47.744;7.358;2022-08-01T00:49:01;2.53;;;2.30;;
37309;SDS011;23195;47.744;7.358;2022-08-01T00:51:33;3.13;;;2.10;;
37309;SDS011;23195;47.744;7.358;2022-08-01T00:54:05;2.60;;;2.30;;
37309;SDS011;23195;47.744;7.358;2022-08-01T00:56:36;2.57;;;2.33;;
37309;SDS011;23195;47.744;7.358;2022-08-01T00:59:14;2.60;;;2.40;;
37309;SDS011;23195;47.744;7.358;2022-08-01T01:01:42;2.77;;;2.57;;
37309;SDS011;23195;47.744;7.358;2022-08-01T01:04:22;2.50;;;2.30;;
37309;SDS011;23195;47.744;7.358;2022-08-01T01:06:56;2.10;;;2.00;;
37309;SDS011;23195;47.744;7.358;2022-08-01T01:09:39;3.63;;;2.63;;
37309;SDS011;23195;47.744;7.358;2022-08-01T01:15:30;3.33;;;2.57;;
37309;SDS011;23195;47.744;7.358;2022-08-01T01:18:49;7.33;;;2.60;;
37309;SDS011;23195;47.744;7.358;2022-08-01T01:29:41;4.17;;;2.50;;
37309;SDS011;23195;47.744;7.358;2022-08-01T01:32:18;2.90;;;2.70;;
37309;SDS011;23195;47.744;7.358;2022-08-01T01:34:54;3.00;;;2.70;;
37309;SDS011;23195;47.744;7.358;2022-08-01T01:37:23;3.10;;;2.60;;
37309;SDS011;23195;47.744;7.358;2022-08-01T01:39:57;3.10;;;2.40;;
37309;SDS011;23195;47.744;7.358;2022-08-01T01:42:25;3.27;;;2.23;;
37309;SDS011;23195;47.744;7.358;2022-08-01T01:44:57;2.57;;;2.37;;
37309;SDS011;23195;47.744;7.358;2022-08-01T01:47:25;3.13;;;2.70;;
37309;SDS011;23195;47.744;7.358;2022-08-01T01:49:55;4.73;;;2.70;;
37309;SDS011;23195;47.744;7.358;2022-08-01T01:52:28;2.80;;;2.60;;
37309;SDS011;23195;47.744;7.358;2022-08-01T01:54:57;2.73;;;2.47;;
37309;SDS011;23195;47.744;7.358;2022-08-01T01:57:30;2.73;;;2.53;;
37309;SDS011;23195;47.744;7.358;2022-08-01T02:00:01;2.93;;;2.60;;
37309;SDS011;23195;47.744;7.358;2022-08-01T02:02:27;3.20;;;2.70;;
37309;SDS011;23195;47.744;7.358;2022-08-01T02:04:56;3.00;;;2.70;;
37309;SDS011;23195;47.744;7.358;2022-08-01T02:07:31;3.73;;;2.50;;
37309;SDS011;23195;47.744;7.358;2022-08-01T02:09:59;2.73;;;2.53;;
37309;SDS011;23195;47.744;7.358;2022-08-01T02:12:31;2.67;;;2.47;;
37309;SDS011;23195;47.744;7.358;2022-08-01T02:15:03;4.70;;;2.87;;
37309;SDS011;23195;47.744;7.358;2022-08-01T02:17:30;3.17;;;2.90;;
37309;SDS011;23195;47.744;7.358;2022-08-01T02:20:01;2.90;;;2.70;;
37309;SDS011;23195;47.744;7.358;2022-08-01T02:25:44;3.23;;;2.93;;
37309;SDS011;23195;47.744;7.358;2022-08-01T02:28:30;3.17;;;2.73;;
37309;SDS011;23195;47.744;7.358;2022-08-01T02:31:07;3.63;;;2.90;;
37309;SDS011;23195;47.744;7.358;2022-08-01T02:34:06;2.97;;;2.67;;
37309;SDS011;23195;47.744;7.358;2022-08-01T02:36:55;4.03;;;2.60;;
37309;SDS011;23195;47.744;7.358;2022-08-01T02:39:56;4.43;;;2.73;;
37309;SDS011;23195;47.744;7.358;2022-08-01T02:42:38;3.13;;;2.87;;
37309;SDS011;23195;47.744;7.358;2022-08-01T02:45:06;4.00;;;2.60;;
37309;SDS011;23195;47.744;7.358;2022-08-01T02:47:33;3.47;;;2.70;;
37309;SDS011;23195;47.744;7.358;2022-08-01T02:50:08;3.00;;;2.70;;
37309;SDS011;23195;47.744;7.358;2022-08-01T02:52:40;3.07;;;2.87;;
37309;SDS011;23195;47.744;7.358;2022-08-01T02:55:11;3.53;;;2.80;;
37309;SDS011;23195;47.744;7.358;2022-08-01T02:57:38;2.70;;;2.50;;
37309;SDS011;23195;47.744;7.358;2022-08-01T03:00:06;4.00;;;2.97;;
37309;SDS011;23195;47.744;7.358;2022-08-01T03:02:32;3.03;;;2.77;;
37309;SDS011;23195;47.744;7.358;2022-08-01T03:05:04;4.27;;;2.90;;
37309;SDS011;23195;47.744;7.358;2022-08-01T03:07:33;3.37;;;3.07;;
37309;SDS011;23195;47.744;7.358;2022-08-01T03:09:59;4.50;;;2.97;;
37309;SDS011;23195;47.744;7.358;2022-08-01T03:12:27;3.40;;;3.10;;
37309;SDS011;23195;47.744;7.358;2022-08-01T03:15:01;3.30;;;3.00;;
37309;SDS011;23195;47.744;7.358;2022-08-01T03:17:29;3.60;;;3.27;;
37309;SDS011;23195;47.744;7.358;2022-08-01T03:19:57;3.93;;;2.97;;
37309;SDS011;23195;47.744;7.358;2022-08-01T03:22:28;3.33;;;3.03;;
37309;SDS011;23195;47.744;7.358;2022-08-01T03:25:01;5.93;;;3.37;;
37309;SDS011;23195;47.744;7.358;2022-08-01T03:27:50;3.13;;;2.93;;
37309;SDS011;23195;47.744;7.358;2022-08-01T03:30:21;8.00;;;3.47;;
37309;SDS011;23195;47.744;7.358;2022-08-01T03:32:49;3.37;;;3.00;;
37309;SDS011;23195;47.744;7.358;2022-08-01T03:35:15;3.60;;;3.30;;
37309;SDS011;23195;47.744;7.358;2022-08-01T03:37:42;5.37;;;3.33;;
37309;SDS011;23195;47.744;7.358;2022-08-01T03:40:22;3.90;;;3.23;;
37309;SDS011;23195;47.744;7.358;2022-08-01T03:43:07;3.30;;;3.00;;
37309;SDS011;23195;47.744;7.358;2022-08-01T03:45:46;8.40;;;3.07;;
37309;SDS011;23195;47.744;7.358;2022-08-01T03:48:27;6.50;;;3.40;;
37309;SDS011;23195;47.744;7.358;2022-08-01T03:51:09;3.77;;;3.10;;
37309;SDS011;23195;47.744;7.358;2022-08-01T03:53:36;3.73;;;3.43;;
37309;SDS011;23195;47.744;7.358;2022-08-01T03:56:17;5.10;;;3.07;;
37309;SDS011;23195;47.744;7.358;2022-08-01T03:58:49;3.80;;;3.40;;
37309;SDS011;23195;47.744;7.358;2022-08-01T04:01:31;3.60;;;3.30;;
37309;SDS011;23195;47.744;7.358;2022-08-01T04:03:59;6.83;;;3.30;;
37309;SDS011;23195;47.744;7.358;2022-08-01T04:06:36;5.50;;;3.30;;
37309;SDS011;23195;47.744;7.358;2022-08-01T04:09:18;5.13;;;3.53;;
37309;SDS011;23195;47.744;7.358;2022-08-01T04:11:58;6.50;;;3.23;;
37309;SDS011;23195;47.744;7.358;2022-08-01T04:14:27;7.33;;;3.87;;
37309;SDS011;23195;47.744;7.358;2022-08-01T04:17:12;5.17;;;3.93;;
37309;SDS011;23195;47.744;7.358;2022-08-01T04:19:44;6.03;;;3.47;;
37309;SDS011;23195;47.744;7.358;2022-08-01T04:22:16;4.13;;;3.73;;
37309;SDS011;23195;47.744;7.358;2022-08-01T04:24:51;6.70;;;3.47;;
37309;SDS011;23195;47.744;7.358;2022-08-01T04:27:28;3.70;;;3.30;;
37309;SDS011;23195;47.744;7.358;2022-08-01T04:30:02;3.93;;;3.53;;
37309;SDS011;23195;47.744;7.358;2022-08-01T04:32:37;4.00;;;3.60;;
37309;SDS011;23195;47.744;7.358;2022-08-01T04:35:22;3.83;;;3.53;;
37309;SDS011;23195;47.744;7.358;2022-08-01T04:37:50;3.80;;;3.40;;
37309;SDS011;23195;47.744;7.358;2022-08-01T04:40:22;3.90;;;3.43;;
37309;SDS011;23195;47.744;7.358;2022-08-01T04:43:01;5.23;;;3.63;;
37309;SDS011;23195;47.744;7.358;2022-08-01T04:45:30;6.03;;;4.03;;
37309;SDS011;23195;47.744;7.358;2022-08-01T04:47:57;3.67;;;3.37;;
37309;SDS011;23195;47.744;7.358;2022-08-01T04:50:40;3.40;;;3.10;;
37309;SDS011;23195;47.744;7.358;2022-08-01T04:53:11;3.73;;;3.00;;
37309;SDS011;23195;47.744;7.358;2022-08-01T04:55:47;3.00;;;2.80;;
37309;SDS011;23195;47.744;7.358;2022-08-01T05:05:23;4.77;;;2.40;;
37309;SDS011;23195;47.744;7.358;2022-08-01T05:08:36;4.70;;;2.47;;
37309;SDS011;23195;47.744;7.358;2022-08-01T05:11:06;4.00;;;2.20;;
37309;SDS011;23195;47.744;7.358;2022-08-01T05:13:32;2.87;;;1.97;;
37309;SDS011;23195;47.744;7.358;2022-08-01T05:15:58;3.17;;;2.37;;
37309;SDS011;23195;47.744;7.358;2022-08-01T05:18:24;2.53;;;2.13;;
37309;SDS011;23195;47.744;7.358;2022-08-01T05:21:01;3.50;;;2.10;;
37309;SDS011;23195;47.744;7.358;2022-08-01T05:24:22;4.17;;;1.90;;
37309;SDS011;23195;47.744;7.358;2022-08-01T05:40:08;8.87;;;2.40;;
37309;SDS011;23195;47.744;7.358;2022-08-01T05:42:34;5.33;;;2.50;;
37309;SDS011;23195;47.744;7.358;2022-08-01T05:45:00;5.43;;;2.13;;
37309;SDS011;23195;47.744;7.358;2022-08-01T05:47:26;4.80;;;1.90;;
37309;SDS011;23195;47.744;7.358;2022-08-01T05:49:52;2.00;;;1.80;;
37309;SDS011;23195;47.744;7.358;2022-08-01T05:52:20;2.23;;;2.03;;
37309;SDS011;23195;47.744;7.358;2022-08-01T05:54:54;5.22;;;1.98;;
37309;SDS011;23195;47.744;7.358;2022-08-01T05:57:20;6.00;;;2.10;;
37309;SDS011;23195;47.744;7.358;2022-08-01T05:59:46;3.63;;;2.20;;
37309;SDS011;23195;47.744;7.358;2022-08-01T06:04:58;3.53;;;2.08;;
37309;SDS011;23195;47.744;7.358;2022-08-01T06:07:24;6.13;;;2.10;;
37309;SDS011;23195;47.744;7.358;2022-08-01T06:09:51;5.13;;;2.20;;
37309;SDS011;23195;47.744;7.358;2022-08-01T06:12:21;9.07;;;2.80;;
37309;SDS011;23195;47.744;7.358;2022-08-01T06:14:46;7.83;;;2.50;;
37309;SDS011;23195;47.744;7.358;2022-08-01T06:17:12;5.80;;;2.50;;
37309;SDS011;23195;47.744;7.358;2022-08-01T06:19:38;5.90;;;2.50;;
37309;SDS011;23195;47.744;7.358;2022-08-01T06:22:04;6.07;;;2.60;;
37309;SDS011;23195;47.744;7.358;2022-08-01T06:24:45;6.53;;;2.70;;
37309;SDS011;23195;47.744;7.358;2022-08-01T06:27:17;5.37;;;2.67;;
37309;SDS011;23195;47.744;7.358;2022-08-01T06:29:49;3.07;;;2.77;;
37309;SDS011;23195;47.744;7.358;2022-08-01T06:32:18;3.40;;;2.70;;
37309;SDS011;23195;47.744;7.358;2022-08-01T06:34:44;4.20;;;3.00;;
37309;SDS011;23195;47.744;7.358;2022-08-01T06:37:10;7.17;;;3.00;;
37309;SDS011;23195;47.744;7.358;2022-08-01T06:39:38;4.90;;;2.83;;
37309;SDS011;23195;47.744;7.358;2022-08-01T06:42:07;4.23;;;2.57;;
37309;SDS011;23195;47.744;7.358;2022-08-01T06:44:34;5.67;;;3.00;;
37309;SDS011;23195;47.744;7.358;2022-08-01T06:47:00;3.93;;;3.10;;
37309;SDS011;23195;47.744;7.358;2022-08-01T06:49:26;2.90;;;2.60;;
37309;SDS011;23195;47.744;7.358;2022-08-01T06:51:52;2.90;;;2.70;;
37309;SDS011;23195;47.744;7.358;2022-08-01T06:54:17;22.17;;;3.23;;
37309;SDS011;23195;47.744;7.358;2022-08-01T06:56:43;12.73;;;2.70;;
37309;SDS011;23195;47.744;7.358;2022-08-01T06:59:09;5.40;;;2.70;;
37309;SDS011;23195;47.744;7.358;2022-08-01T07:01:35;7.60;;;2.70;;
37309;SDS011;23195;47.744;7.358;2022-08-01T07:04:09;2.87;;;2.57;;
37309;SDS011;23195;47.744;7.358;2022-08-01T07:06:35;4.30;;;2.53;;
37309;SDS011;23195;47.744;7.358;2022-08-01T07:09:01;2.60;;;2.40;;
37309;SDS011;23195;47.744;7.358;2022-08-01T07:11:29;3.97;;;2.22;;
37309;SDS011;23195;47.744;7.358;2022-08-01T07:14:05;5.38;;;2.35;;
37309;SDS011;23195;47.744;7.358;2022-08-01T07:16:34;5.10;;;2.30;;
37309;SDS011;23195;47.744;7.358;2022-08-01T07:19:08;2.33;;;2.17;;
37309;SDS011;23195;47.744;7.358;2022-08-01T07:21:37;5.28;;;2.47;;
37309;SDS011;23195;47.744;7.358;2022-08-01T07:24:07;3.13;;;2.10;;
37309;SDS011;23195;47.744;7.358;2022-08-01T07:26:35;3.30;;;2.25;;
37309;SDS011;23195;47.744;7.358;2022-08-01T07:29:01;2.28;;;2.17;;
37309;SDS011;23195;47.744;7.358;2022-08-01T07:31:40;2.95;;;2.10;;
37309;SDS011;23195;47.744;7.358;2022-08-01T07:34:06;2.30;;;2.10;;
37309;SDS011;23195;47.744;7.358;2022-08-01T07:36:33;2.67;;;2.00;;
37309;SDS011;23195;47.744;7.358;2022-08-01T07:38:59;2.63;;;2.13;;
37309;SDS011;23195;47.744;7.358;2022-08-01T07:41:25;2.53;;;2.33;;
37309;SDS011;23195;47.744;7.358;2022-08-01T07:43:52;2.20;;;2.00;;
37309;SDS011;23195;47.744;7.358;2022-08-01T07:46:24;3.38;;;2.00;;
37309;SDS011;23195;47.744;7.358;2022-08-01T07:48:57;2.28;;;2.08;;
37309;SDS011;23195;47.744;7.358;2022-08-01T07:51:23;3.47;;;2.35;;
37309;SDS011;23195;47.744;7.358;2022-08-01T07:53:49;2.25;;;2.10;;
37309;SDS011;23195;47.744;7.358;2022-08-01T07:56:15;6.13;;;2.25;;
37309;SDS011;23195;47.744;7.358;2022-08-01T07:58:57;5.57;;;2.58;;
37309;SDS011;23195;47.744;7.358;2022-08-01T08:01:23;3.35;;;2.22;;
37309;SDS011;23195;47.744;7.358;2022-08-01T08:03:49;2.83;;;2.63;;
37309;SDS011;23195;47.744;7.358;2022-08-01T08:06:18;4.95;;;2.65;;
37309;SDS011;23195;47.744;7.358;2022-08-01T08:08:47;2.50;;;2.30;;
37309;SDS011;23195;47.744;7.358;2022-08-01T08:11:13;3.38;;;2.05;;
37309;SDS011;23195;47.744;7.358;2022-08-01T08:13:39;5.50;;;2.20;;
37309;SDS011;23195;47.744;7.358;2022-08-01T08:16:05;5.28;;;2.80;;
37309;SDS011;23195;47.744;7.358;2022-08-01T08:18:35;2.55;;;2.35;;
37309;SDS011;23195;47.744;7.358;2022-08-01T08:21:03;2.58;;;2.38;;
37309;SDS011;23195;47.744;7.358;2022-08-01T08:23:31;3.95;;;2.47;;
37309;SDS011;23195;47.744;7.358;2022-08-01T08:26:18;3.00;;;2.38;;
37309;SDS011;23195;47.744;7.358;2022-08-01T08:28:44;5.15;;;2.40;;
37309;SDS011;23195;47.744;7.358;2022-08-01T08:31:11;2.95;;;2.20;;
37309;SDS011;23195;47.744;7.358;2022-08-01T08:33:45;2.88;;;2.47;;
37309;SDS011;23195;47.744;7.358;2022-08-01T08:36:13;4.30;;;2.50;;
37309;SDS011;23195;47.744;7.358;2022-08-01T08:38:58;2.70;;;2.50;;
37309;SDS011;23195;47.744;7.358;2022-08-01T08:41:28;3.90;;;2.63;;
37309;SDS011;23195;47.744;7.358;2022-08-01T08:44:00;2.90;;;2.70;;
37309;SDS011;23195;47.744;7.358;2022-08-01T08:46:31;4.85;;;2.70;;
37309;SDS011;23195;47.744;7.358;2022-08-01T08:49:05;4.95;;;2.80;;
37309;SDS011;23195;47.744;7.358;2022-08-01T08:51:33;4.07;;;2.65;;
37309;SDS011;23195;47.744;7.358;2022-08-01T08:54:06;3.92;;;2.80;;
37309;SDS011;23195;47.744;7.358;2022-08-01T08:56:34;8.65;;;2.90;;
37309;SDS011;23195;47.744;7.358;2022-08-01T08:59:10;4.07;;;2.65;;
37309;SDS011;23195;47.744;7.358;2022-08-01T09:01:43;3.88;;;2.42;;
37309;SDS011;23195;47.744;7.358;2022-08-01T09:04:09;4.63;;;2.92;;
37309;SDS011;23195;47.744;7.358;2022-08-01T09:06:36;3.25;;;2.70;;
37309;SDS011;23195;47.744;7.358;2022-08-01T09:09:05;3.45;;;2.53;;
37309;SDS011;23195;47.744;7.358;2022-08-01T09:11:32;3.03;;;2.70;;
37309;SDS011;23195;47.744;7.358;2022-08-01T09:14:07;2.78;;;2.50;;
37309;SDS011;23195;47.744;7.358;2022-08-01T09:17:09;3.00;;;2.60;;
37309;SDS011;23195;47.744;7.358;2022-08-01T09:19:44;5.32;;;2.50;;
37309;SDS011;23195;47.744;7.358;2022-08-01T09:22:16;3.67;;;2.80;;
37309;SDS011;23195;47.744;7.358;2022-08-01T09:24:58;3.17;;;2.40;;
37309;SDS011;23195;47.744;7.358;2022-08-01T09:27:30;5.93;;;2.70;;
37309;SDS011;23195;47.744;7.358;2022-08-01T09:30:06;2.88;;;2.65;;
37309;SDS011;23195;47.744;7.358;2022-08-01T09:32:55;3.88;;;2.60;;
37309;SDS011;23195;47.744;7.358;2022-08-01T09:38:23;2.75;;;2.25;;
37309;SDS011;23195;47.744;7.358;2022-08-01T09:40:53;3.78;;;2.78;;
37309;SDS011;23195;47.744;7.358;2022-08-01T09:43:28;3.40;;;2.40;;
37309;SDS011;23195;47.744;7.358;2022-08-01T09:45:59;2.83;;;2.63;;
37309;SDS011;23195;47.744;7.358;2022-08-01T09:48:30;3.20;;;2.80;;
37309;SDS011;23195;47.744;7.358;2022-08-01T09:51:07;4.40;;;2.57;;
37309;SDS011;23195;47.744;7.358;2022-08-01T09:53:42;3.97;;;2.83;;
37309;SDS011;23195;47.744;7.358;2022-08-01T09:56:16;3.50;;;2.87;;
37309;SDS011;23195;47.744;7.358;2022-08-01T10:01:52;3.47;;;3.00;;
37309;SDS011;23195;47.744;7.358;2022-08-01T10:04:19;2.90;;;2.70;;
37309;SDS011;23195;47.744;7.358;2022-08-01T10:06:47;5.60;;;3.00;;
37309;SDS011;23195;47.744;7.358;2022-08-01T10:09:26;3.40;;;3.00;;
37309;SDS011;23195;47.744;7.358;2022-08-01T10:11:59;3.90;;;3.00;;
37309;SDS011;23195;47.744;7.358;2022-08-01T10:14:26;12.40;;;3.33;;
37309;SDS011;23195;47.744;7.358;2022-08-01T10:16:52;3.90;;;2.90;;
37309;SDS011;23195;47.744;7.358;2022-08-01T10:19:21;3.20;;;2.90;;
37309;SDS011;23195;47.744;7.358;2022-08-01T10:21:48;4.40;;;4.00;;
37309;SDS011;23195;47.744;7.358;2022-08-01T10:24:17;3.50;;;2.77;;
37309;SDS011;23195;47.744;7.358;2022-08-01T10:27:03;2.80;;;2.47;;
37309;SDS011;23195;47.744;7.358;2022-08-01T10:29:55;2.50;;;2.30;;
37309;SDS011;23195;47.744;7.358;2022-08-01T10:32:25;5.30;;;2.57;;
37309;SDS011;23195;47.744;7.358;2022-08-01T10:34:52;2.53;;;2.00;;
37309;SDS011;23195;47.744;7.358;2022-08-01T10:37:19;1.80;;;1.70;;
37309;SDS011;23195;47.744;7.358;2022-08-01T10:39:45;2.60;;;1.87;;
37309;SDS011;23195;47.744;7.358;2022-08-01T10:42:11;2.67;;;2.10;;
37309;SDS011;23195;47.744;7.358;2022-08-01T10:44:38;4.83;;;1.93;;
37309;SDS011;23195;47.744;7.358;2022-08-01T10:49:55;2.20;;;1.67;;
37309;SDS011;23195;47.744;7.358;2022-08-01T10:52:29;2.43;;;2.07;;
37309;SDS011;23195;47.744;7.358;2022-08-01T10:55:02;2.43;;;1.80;;
37309;SDS011;23195;47.744;7.358;2022-08-01T11:07:22;2.87;;;2.00;;
37309;SDS011;23195;47.744;7.358;2022-08-01T11:10:06;2.07;;;1.83;;
37309;SDS011;23195;47.744;7.358;2022-08-01T11:12:40;4.23;;;1.90;;
37309;SDS011;23195;47.744;7.358;2022-08-01T11:17:41;2.07;;;1.90;;
37309;SDS011;23195;47.744;7.358;2022-08-01T11:20:25;3.53;;;2.00;;
37309;SDS011;23195;47.744;7.358;2022-08-01T11:30:40;2.50;;;2.10;;
37309;SDS011;23195;47.744;7.358;2022-08-01T11:33:06;2.63;;;1.93;;
37309;SDS011;23195;47.744;7.358;2022-08-01T11:35:34;2.07;;;1.80;;
37309;SDS011;23195;47.744;7.358;2022-08-01T11:54:49;2.13;;;1.50;;
37309;SDS011;23195;47.744;7.358;2022-08-01T11:57:18;2.30;;;1.90;;
37309;SDS011;23195;47.744;7.358;2022-08-01T11:59:57;2.10;;;1.90;;
37309;SDS011;23195;47.744;7.358;2022-08-01T12:02:25;2.40;;;2.20;;
37309;SDS011;23195;47.744;7.358;2022-08-01T12:07:36;2.57;;;2.10;;
37309;SDS011;23195;47.744;7.358;2022-08-01T12:12:34;7.20;;;2.13;;
37309;SDS011;23195;47.744;7.358;2022-08-01T12:15:03;1.57;;;1.47;;
37309;SDS011;23195;47.744;7.358;2022-08-01T12:17:35;2.73;;;1.63;;
37309;SDS011;23195;47.744;7.358;2022-08-01T12:20:03;3.73;;;1.47;;
37309;SDS011;23195;47.744;7.358;2022-08-01T12:22:31;1.77;;;1.67;;
37309;SDS011;23195;47.744;7.358;2022-08-01T12:25:07;1.60;;;1.50;;
37309;SDS011;23195;47.744;7.358;2022-08-01T12:27:38;3.23;;;1.80;;
37309;SDS011;23195;47.744;7.358;2022-08-01T12:30:09;5.40;;;1.73;;
37309;SDS011;23195;47.744;7.358;2022-08-01T12:32:38;3.90;;;1.83;;
37309;SDS011;23195;47.744;7.358;2022-08-01T12:35:09;4.33;;;1.93;;
37309;SDS011;23195;47.744;7.358;2022-08-01T12:37:45;2.53;;;2.03;;
37309;SDS011;23195;47.744;7.358;2022-08-01T12:42:54;5.33;;;1.87;;
37309;SDS011;23195;47.744;7.358;2022-08-01T12:45:23;3.63;;;2.03;;
37309;SDS011;23195;47.744;7.358;2022-08-01T12:47:51;3.10;;;2.07;;
37309;SDS011;23195;47.744;7.358;2022-08-01T12:50:19;2.80;;;1.77;;
37309;SDS011;23195;47.744;7.358;2022-08-01T12:52:55;2.10;;;1.90;;
37309;SDS011;23195;47.744;7.358;2022-08-01T12:55:23;2.43;;;1.80;;
37309;SDS011;23195;47.744;7.358;2022-08-01T12:58:05;2.70;;;1.70;;
37309;SDS011;23195;47.744;7.358;2022-08-01T13:00:33;5.67;;;1.90;;
37309;SDS011;23195;47.744;7.358;2022-08-01T13:03:10;2.93;;;1.60;;
37309;SDS011;23195;47.744;7.358;2022-08-01T13:05:56;3.20;;;1.80;;
37309;SDS011;23195;47.744;7.358;2022-08-01T13:08:24;1.90;;;1.70;;
37309;SDS011;23195;47.744;7.358;2022-08-01T13:10:59;2.93;;;2.13;;
37309;SDS011;23195;47.744;7.358;2022-08-01T13:13:34;2.70;;;2.07;;
37309;SDS011;23195;47.744;7.358;2022-08-01T13:16:04;3.67;;;2.40;;
37309;SDS011;23195;47.744;7.358;2022-08-01T13:18:32;2.57;;;2.10;;
37309;SDS011;23195;47.744;7.358;2022-08-01T13:21:15;3.00;;;2.10;;
37309;SDS011;23195;47.744;7.358;2022-08-01T13:23:42;2.57;;;1.70;;
37309;SDS011;23195;47.744;7.358;2022-08-01T13:26:48;2.93;;;1.97;;
37309;SDS011;23195;47.744;7.358;2022-08-01T13:32:12;2.43;;;1.87;;
37309;SDS011;23195;47.744;7.358;2022-08-01T13:34:39;4.63;;;1.87;;
37309;SDS011;23195;47.744;7.358;2022-08-01T13:37:05;2.93;;;1.77;;
37309;SDS011;23195;47.744;7.358;2022-08-01T13:39:31;2.50;;;2.17;;
37309;SDS011;23195;47.744;7.358;2022-08-01T13:42:08;3.07;;;1.73;;
37309;SDS011;23195;47.744;7.358;2022-08-01T13:44:38;3.70;;;1.90;;
37309;SDS011;23195;47.744;7.358;2022-08-01T13:47:05;3.27;;;1.83;;
37309;SDS011;23195;47.744;7.358;2022-08-01T13:49:31;2.30;;;1.90;;
37309;SDS011;23195;47.744;7.358;2022-08-01T13:52:05;2.90;;;1.60;;
37309;SDS011;23195;47.744;7.358;2022-08-01T13:54:35;4.10;;;1.93;;
37309;SDS011;23195;47.744;7.358;2022-08-01T13:57:01;2.73;;;1.60;;
37309;SDS011;23195;47.744;7.358;2022-08-01T13:59:33;5.27;;;1.80;;
37309;SDS011;23195;47.744;7.358;2022-08-01T14:01:58;6.03;;;1.80;;
37309;SDS011;23195;47.744;7.358;2022-08-01T14:04:24;1.70;;;1.60;;
37309;SDS011;23195;47.744;7.358;2022-08-01T14:06:50;2.23;;;1.50;;
37309;SDS011;23195;47.744;7.358;2022-08-01T14:09:16;3.27;;;1.67;;
37309;SDS011;23195;47.744;7.358;2022-08-01T14:11:44;2.27;;;1.67;;
37309;SDS011;23195;47.744;7.358;2022-08-01T14:14:10;5.50;;;1.80;;
37309;SDS011;23195;47.744;7.358;2022-08-01T14:16:36;2.70;;;1.57;;
37309;SDS011;23195;47.744;7.358;2022-08-01T14:19:02;9.57;;;1.93;;
37309;SDS011;23195;47.744;7.358;2022-08-01T14:21:28;3.83;;;1.90;;
37309;SDS011;23195;47.744;7.358;2022-08-01T14:23:54;1.80;;;1.70;;
37309;SDS011;23195;47.744;7.358;2022-08-01T14:26:20;1.80;;;1.70;;
37309;SDS011;23195;47.744;7.358;2022-08-01T14:28:46;3.77;;;1.63;;
37309;SDS011;23195;47.744;7.358;2022-08-01T14:31:12;1.70;;;1.43;;
37309;SDS011;23195;47.744;7.358;2022-08-01T14:33:37;2.40;;;1.70;;
37309;SDS011;23195;47.744;7.358;2022-08-01T14:36:03;4.70;;;1.50;;
37309;SDS011;23195;47.744;7.358;2022-08-01T14:38:29;3.33;;;1.47;;
37309;SDS011;23195;47.744;7.358;2022-08-01T14:40:55;2.00;;;1.50;;
37309;SDS011;23195;47.744;7.358;2022-08-01T14:43:21;4.53;;;2.00;;
37309;SDS011;23195;47.744;7.358;2022-08-01T14:45:47;4.17;;;1.50;;
37309;SDS011;23195;47.744;7.358;2022-08-01T14:48:17;2.33;;;1.80;;
37309;SDS011;23195;47.744;7.358;2022-08-01T14:50:52;3.40;;;1.70;;
37309;SDS011;23195;47.744;7.358;2022-08-01T14:53:18;4.33;;;1.80;;
37309;SDS011;23195;47.744;7.358;2022-08-01T14:55:44;5.60;;;2.03;;
37309;SDS011;23195;47.744;7.358;2022-08-01T14:58:09;5.43;;;1.87;;
37309;SDS011;23195;47.744;7.358;2022-08-01T15:00:42;6.30;;;2.20;;
37309;SDS011;23195;47.744;7.358;2022-08-01T15:03:08;6.27;;;1.90;;
37309;SDS011;23195;47.744;7.358;2022-08-01T15:05:34;5.47;;;1.80;;
37309;SDS011;23195;47.744;7.358;2022-08-01T15:08:03;3.30;;;1.83;;
37309;SDS011;23195;47.744;7.358;2022-08-01T15:10:34;5.27;;;1.90;;
37309;SDS011;23195;47.744;7.358;2022-08-01T15:13:02;4.33;;;1.80;;
37309;SDS011;23195;47.744;7.358;2022-08-01T15:15:28;3.13;;;2.00;;
37309;SDS011;23195;47.744;7.358;2022-08-01T15:17:54;3.87;;;2.03;;
37309;SDS011;23195;47.744;7.358;2022-08-01T15:20:20;4.43;;;1.73;;
37309;SDS011;23195;47.744;7.358;2022-08-01T15:22:46;2.53;;;1.63;;
37309;SDS011;23195;47.744;7.358;2022-08-01T15:25:12;2.43;;;1.60;;
37309;SDS011;23195;47.744;7.358;2022-08-01T15:27:38;1.60;;;1.50;;
37309;SDS011;23195;47.744;7.358;2022-08-01T15:30:04;3.00;;;1.90;;
37309;SDS011;23195;47.744;7.358;2022-08-01T15:32:31;1.73;;;1.30;;
37309;SDS011;23195;47.744;7.358;2022-08-01T15:34:56;4.23;;;1.70;;
37309;SDS011;23195;47.744;7.358;2022-08-01T15:37:25;4.23;;;1.53;;
37309;SDS011;23195;47.744;7.358;2022-08-01T15:39:51;3.33;;;1.53;;
37309;SDS011;23195;47.744;7.358;2022-08-01T15:42:17;2.47;;;1.73;;
37309;SDS011;23195;47.744;7.358;2022-08-01T15:44:43;4.43;;;1.70;;
37309;SDS011;23195;47.744;7.358;2022-08-01T15:47:12;4.93;;;1.67;;
37309;SDS011;23195;47.744;7.358;2022-08-01T15:49:38;1.83;;;1.73;;
37309;SDS011;23195;47.744;7.358;2022-08-01T15:52:04;2.00;;;1.90;;
37309;SDS011;23195;47.744;7.358;2022-08-01T15:54:31;1.80;;;1.70;;
37309;SDS011;23195;47.744;7.358;2022-08-01T15:56:58;3.30;;;1.80;;
37309;SDS011;23195;47.744;7.358;2022-08-01T15:59:23;2.13;;;1.90;;
37309;SDS011;23195;47.744;7.358;2022-08-01T16:01:55;1.60;;;1.50;;
37309;SDS011;23195;47.744;7.358;2022-08-01T16:04:20;2.43;;;1.80;;
37309;SDS011;23195;47.744;7.358;2022-08-01T16:06:46;2.37;;;2.17;;
37309;SDS011;23195;47.744;7.358;2022-08-01T16:09:12;2.07;;;1.93;;
37309;SDS011;23195;47.744;7.358;2022-08-01T16:11:38;3.80;;;2.13;;
37309;SDS011;23195;47.744;7.358;2022-08-01T16:14:04;3.07;;;2.30;;
37309;SDS011;23195;47.744;7.358;2022-08-01T16:16:30;2.37;;;2.17;;
37309;SDS011;23195;47.744;7.358;2022-08-01T16:18:56;4.17;;;2.40;;
37309;SDS011;23195;47.744;7.358;2022-08-01T16:21:22;3.83;;;2.30;;
37309;SDS011;23195;47.744;7.358;2022-08-01T16:23:49;2.37;;;2.10;;
37309;SDS011;23195;47.744;7.358;2022-08-01T16:26:15;3.03;;;2.40;;
37309;SDS011;23195;47.744;7.358;2022-08-01T16:28:41;2.00;;;1.90;;
37309;SDS011;23195;47.744;7.358;2022-08-01T16:31:13;2.97;;;2.33;;
37309;SDS011;23195;47.744;7.358;2022-08-01T16:33:39;4.20;;;2.20;;
37309;SDS011;23195;47.744;7.358;2022-08-01T16:36:05;2.57;;;2.17;;
37309;SDS011;23195;47.744;7.358;2022-08-01T16:38:42;5.40;;;2.30;;
37309;SDS011;23195;47.744;7.358;2022-08-01T16:41:08;3.07;;;2.13;;
37309;SDS011;23195;47.744;7.358;2022-08-01T16:43:34;3.80;;;2.50;;